GW2801 Weather Reports


time (UTC)temp
F
wind
direction
speed
knots
gust
knots
rain 1hr
in
rain 24hr
in
rain mn
in
humidity
%
barometer
mb
20260906172054 98 117 0.9 1.7 0.00 0.00 0.00 38 1017.8
20260906171553 98 205 0.9 1.7 0.00 0.00 0.00 37 1017.8
20260906171049 98 126 0.0 0.9 0.00 0.00 0.00 39 1018.1
20260906170544 97 154 0.9 0.9 0.00 0.00 0.00 40 1018.1
20260906170043 97 132 0.9 0.9 0.00 0.00 0.00 42 1018.2
20260906165541 96 197 0.0 1.7 0.00 0.00 0.00 44 1018.0
20260906165035 96 175 0.0 0.9 0.00 0.00 0.00 44 1018.0
20260906164534 95 156 0.9 0.9 0.00 0.00 0.00 43 1018.2
20260906164031 95 127 0.9 2.6 0.00 0.00 0.00 42 1018.3
20260906163526 95 131 0.0 0.9 0.00 0.00 0.00 44 1018.3
20260906163021 95 131 0.9 0.9 0.00 0.00 0.00 44 1018.3
20260906162518 94 155 0.0 0.9 0.00 0.00 0.00 46 1018.2
20260906162013 94 130 0.0 0.0 0.00 0.00 0.00 48 1018.3
20260906161509 93 181 0.9 1.7 0.00 0.00 0.00 45 1018.3
20260906161007 92 147 0.9 0.9 0.00 0.00 0.00 49 1018.3
20260906160501 92 197 0.0 0.0 0.00 0.00 0.00 51 1018.3
20260906155958 92 191 1.7 1.7 0.00 0.00 0.00 51 1018.4
20260906155457 91 188 0.9 0.9 0.00 0.00 0.00 50 1018.3
20260906154948 91 189 0.0 0.9 0.00 0.00 0.00 50 1018.4
20260906154443 90 143 1.7 1.7 0.00 0.00 0.00 51 1018.2
20260906153941 90 143 0.0 0.0 0.00 0.00 0.00 53 1018.4
20260906153440 90 143 0.0 0.0 0.00 0.00 0.00 53 1018.3
20260906152936 89 143 0.0 0.0 0.00 0.00 0.00 56 1018.4
20260906152436 88 143 0.0 0.9 0.00 0.00 0.00 54 1018.2
20260906151935 88 143 0.0 0.0 0.00 0.00 0.00 56 1018.4
20260906151430 87 143 0.0 0.0 0.00 0.00 0.00 57 1018.3
20260906150926 87 143 0.0 0.0 0.00 0.00 0.00 58 1018.3
20260906150421 87 142 0.0 0.9 0.00 0.00 0.00 58 1018.2
20260906145920 86 143 0.9 0.9 0.00 0.00 0.00 61 1018.1
20260906145414 85 143 0.9 1.7 0.00 0.00 0.00 61 1018.2
20260906144909 84 142 0.0 0.0 0.00 0.00 0.00 65 1018.2
20260906144403 84 135 0.0 0.0 0.00 0.00 0.00 67 1018.1
20260906143859 83 135 0.0 0.0 0.00 0.00 0.00 68 1018.4
20260906143354 82 135 0.0 0.0 0.00 0.00 0.00 70 1018.2
20260906142850 82 135 0.0 0.0 0.00 0.00 0.00 72 1018.2
20260906142344 81 134 0.0 0.0 0.00 0.00 0.00 71 1018.3
20260906141844 81 135 0.0 0.0 0.00 0.00 0.00 74 1018.2
20260906141333 80 134 0.0 0.0 0.00 0.00 0.00 74 1018.4
20260906140832 79 134 0.0 0.0 0.00 0.00 0.00 76 1018.5
20260906140327 79 133 0.0 0.0 0.00 0.00 0.00 77 1018.3
20260906135825 78 133 0.0 0.0 0.00 0.00 0.00 79 1018.1
20260906135320 77 133 0.0 0.0 0.00 0.00 0.00 80 1018.1
20260906134815 77 132 0.0 0.0 0.00 0.00 0.00 81 1018.1
20260906134311 76 133 0.0 0.0 0.00 0.00 0.00 82 1018.2
20260906133806 76 132 0.0 0.0 0.00 0.00 0.00 83 1018.1
20260906133301 75 132 0.0 0.0 0.00 0.00 0.00 84 1018.1
20260906132757 75 133 0.0 0.0 0.00 0.00 0.00 84 1018.1
20260906132252 75 132 0.0 0.0 0.00 0.00 0.00 84 1018.1
20260906131747 74 132 0.0 0.0 0.00 0.00 0.00 85 1018.2
20260906131242 74 132 0.0 0.0 0.00 0.00 0.00 85 1018.1
20260906130737 73 133 0.0 0.0 0.00 0.00 0.00 86 1018.1
20260906130232 73 132 0.0 0.0 0.00 0.00 0.00 87 1018.0
20260906125731 73 132 0.0 0.0 0.00 0.00 0.00 87 1017.8
20260906125229 73 132 0.0 0.0 0.00 0.00 0.00 88 1017.8
20260906124724 73 133 0.0 0.0 0.00 0.00 0.00 87 1017.8
20260906124220 73 133 0.0 0.0 0.00 0.00 0.00 88 1017.9
20260906123718 73 132 0.0 0.0 0.00 0.00 0.00 87 1017.6
20260906123214 72 132 0.0 0.0 0.00 0.00 0.00 87 1017.6
20260906122713 72 132 0.0 0.0 0.00 0.00 0.00 87 1017.6
20260906122209 72 132 0.0 0.0 0.00 0.00 0.00 87 1017.4
20260906121705 72 132 0.0 0.0 0.00 0.00 0.00 87 1017.6
20260906121201 73 132 0.0 0.0 0.00 0.00 0.00 86 1017.2
20260906120656 73 132 0.0 0.0 0.00 0.00 0.00 86 1017.4
20260906120153 72 132 0.0 0.0 0.00 0.00 0.00 87 1017.3
20260906115648 72 132 0.0 0.0 0.00 0.00 0.00 88 1017.2
20260906115144 72 132 0.0 0.0 0.00 0.00 0.00 87 1017.2
20260906114642 72 132 0.0 0.0 0.00 0.00 0.00 88 1016.8
20260906114137 72 132 0.0 0.0 0.00 0.00 0.00 88 1017.0
20260906113632 72 132 0.0 0.0 0.00 0.00 0.00 88 1016.9
20260906113126 72 132 0.0 0.0 0.00 0.00 0.00 88 1017.0
20260906112626 72 132 0.0 0.0 0.00 0.00 0.00 88 1016.8
20260906112123 72 132 0.0 0.0 0.00 0.00 0.00 88 1016.9
20260906111622 72 132 0.0 0.0 0.00 0.00 0.00 88 1016.8
20260906111118 72 132 0.0 0.0 0.00 0.00 0.00 88 1016.8
20260906110618 72 132 0.0 0.0 0.00 0.00 0.00 88 1016.9
20260906110112 72 132 0.0 0.0 0.00 0.00 0.00 87 1016.8
20260906105607 72 132 0.0 0.0 0.00 0.00 0.00 87 1016.8
20260906105103 73 132 0.0 0.0 0.00 0.00 0.00 87 1016.9
20260906104602 73 132 0.0 0.0 0.00 0.00 0.00 87 1016.8
20260906104056 73 132 0.0 0.0 0.00 0.00 0.00 86 1016.7
20260906103554 73 132 0.0 0.0 0.00 0.00 0.00 85 1016.7
20260906103050 73 132 0.0 0.0 0.00 0.00 0.00 85 1016.8
20260906102549 73 132 0.0 0.0 0.00 0.00 0.00 85 1016.8
20260906102045 74 132 0.0 0.0 0.00 0.00 0.00 84 1016.7
20260906101539 74 132 0.0 0.0 0.00 0.00 0.00 84 1016.8
20260906101033 74 132 0.0 0.0 0.00 0.00 0.00 84 1016.7
20260906100530 74 132 0.0 0.0 0.00 0.00 0.00 83 1016.5
20260906100030 74 132 0.0 0.0 0.00 0.00 0.00 83 1016.7
20260906095524 74 132 0.0 0.0 0.00 0.00 0.00 83 1016.6
20260906095020 74 132 0.0 0.0 0.00 0.00 0.00 83 1016.6
20260906094518 74 132 0.0 0.0 0.00 0.00 0.00 83 1016.6
20260906094015 74 132 0.0 0.0 0.00 0.00 0.00 84 1016.4
20260906093510 74 132 0.0 0.0 0.00 0.00 0.00 83 1016.5
20260906093005 74 132 0.0 0.0 0.00 0.00 0.00 83 1016.7
20260906092459 74 132 0.0 0.0 0.00 0.00 0.00 84 1016.4
20260906091955 74 132 0.0 0.0 0.00 0.00 0.00 83 1016.6
20260906091450 74 132 0.0 0.0 0.00 0.00 0.00 83 1016.4
20260906090947 74 132 0.0 0.0 0.00 0.00 0.00 83 1016.5
20260906090442 75 132 0.0 0.0 0.00 0.00 0.00 83 1016.6
20260906085942 75 132 0.0 0.0 0.00 0.00 0.00 82 1016.5
20260906085441 75 132 0.0 0.0 0.00 0.00 0.00 82 1016.5
20260906084940 75 132 0.0 0.0 0.00 0.00 0.00 81 1016.4
20260906084435 75 132 0.0 0.0 0.00 0.00 0.00 81 1016.5
20260906083934 75 132 0.0 0.0 0.00 0.00 0.00 81 1016.4
20260906083430 75 132 0.0 0.0 0.00 0.00 0.00 80 1016.2
20260906082929 75 132 0.0 0.0 0.00 0.00 0.00 80 1016.3
20260906082425 75 132 0.0 0.0 0.00 0.00 0.00 79 1016.6
20260906081920 75 132 0.0 0.0 0.00 0.00 0.00 80 1016.5
20260906081415 75 132 0.0 0.0 0.00 0.00 0.00 79 1016.4
20260906080912 75 132 0.0 0.0 0.00 0.00 0.00 79 1016.3
20260906080408 75 132 0.0 0.0 0.00 0.00 0.00 79 1016.4
20260906075907 75 132 0.0 0.0 0.00 0.00 0.00 79 1016.5
20260906075402 76 132 0.0 0.0 0.00 0.00 0.00 79 1016.2
20260906074858 76 132 0.0 0.0 0.00 0.00 0.00 79 1016.5
20260906074357 76 132 0.0 0.0 0.00 0.00 0.00 78 1016.4
20260906073856 76 132 0.0 0.0 0.00 0.00 0.00 78 1016.3
20260906073351 76 132 0.0 0.0 0.00 0.00 0.00 78 1016.3
20260906072847 77 132 0.0 0.0 0.00 0.00 0.00 78 1016.4
20260906072343 77 132 0.0 0.0 0.00 0.00 0.00 76 1016.5
20260906071839 77 132 0.0 0.0 0.00 0.00 0.00 76 1016.4
20260906071334 77 132 0.0 0.0 0.00 0.00 0.00 76 1016.4
20260906070830 77 132 0.0 0.0 0.00 0.00 0.00 76 1016.5
20260906070325 77 132 0.0 0.0 0.00 0.00 0.00 76 1016.4
20260906065820 77 132 0.0 0.0 0.00 0.00 0.00 76 1016.6
20260906065315 77 132 0.0 0.0 0.00 0.00 0.00 76 1016.6
20260906064811 77 132 0.0 0.0 0.00 0.00 0.00 75 1016.3
20260906064306 77 132 0.0 0.0 0.00 0.00 0.00 75 1016.3
20260906063801 77 132 0.0 0.0 0.00 0.00 0.00 76 1016.5
20260906063257 77 132 0.0 0.0 0.00 0.00 0.00 75 1016.7
20260906062752 77 132 0.0 0.0 0.00 0.00 0.00 75 1016.5
20260906062251 77 132 0.0 0.0 0.00 0.00 0.00 75 1016.7
20260906061746 77 132 0.0 0.0 0.00 0.00 0.00 75 1016.6
20260906061243 77 132 0.0 0.0 0.00 0.00 0.00 74 1016.5
20260906060738 77 132 0.0 0.0 0.00 0.00 0.00 74 1016.3
20260906060236 78 132 0.0 0.0 0.00 0.00 0.00 75 1016.6
20260906055731 78 132 0.0 0.0 0.00 0.00 0.00 74 1016.7
20260906055226 78 132 0.0 0.0 0.00 0.00 0.00 74 1016.6
20260906054721 78 132 0.0 0.0 0.00 0.00 0.00 74 1016.4
20260906054216 78 132 0.0 0.0 0.00 0.00 0.00 73 1016.6
20260906053713 78 132 0.0 0.0 0.00 0.00 0.00 73 1016.6
20260906053208 78 132 0.0 0.0 0.00 0.00 0.00 72 1016.4
20260906052703 78 132 0.0 0.0 0.00 0.00 0.00 71 1016.6
20260906052159 78 132 0.0 0.0 0.00 0.00 0.00 71 1016.3
20260906051656 78 132 0.0 0.0 0.00 0.00 0.00 71 1016.4
20260906051155 78 132 0.0 0.0 0.00 0.00 0.00 71 1016.5
20260906050651 78 132 0.0 0.0 0.00 0.00 0.00 71 1016.4
20260906050146 78 132 0.0 0.0 0.00 0.00 0.00 72 1016.4
20260906045644 78 132 0.0 0.0 0.00 0.00 0.00 72 1016.4
20260906045140 79 132 0.0 0.0 0.00 0.00 0.00 72 1016.4
20260906044636 79 132 0.0 0.0 0.00 0.00 0.00 72 1016.4
20260906044131 79 132 0.0 0.0 0.00 0.00 0.00 71 1016.2
20260906043627 79 132 0.0 0.0 0.00 0.00 0.00 72 1016.3
20260906043122 79 132 0.0 0.0 0.00 0.00 0.00 72 1016.3
20260906042621 79 132 0.0 0.0 0.00 0.00 0.00 71 1016.5
20260906042115 79 132 0.0 0.0 0.00 0.00 0.00 71 1016.4
20260906041612 79 132 0.0 0.0 0.00 0.00 0.00 70 1016.5
20260906041106 80 132 0.0 0.0 0.00 0.00 0.00 70 1016.6
20260906040602 80 132 0.0 0.0 0.00 0.00 0.00 69 1016.5
20260906040057 80 132 0.0 0.0 0.00 0.00 0.00 69 1016.3
20260906035552 80 132 0.0 0.0 0.00 0.00 0.00 68 1016.5
20260906035048 80 132 0.0 0.0 0.00 0.00 0.00 68 1016.2
20260906034547 80 132 0.0 0.0 0.00 0.00 0.00 68 1016.5
20260906034037 81 132 0.0 0.0 0.00 0.00 0.00 68 1016.5
20260906033532 81 132 0.0 0.0 0.00 0.00 0.00 67 1016.4
20260906033028 81 132 0.0 0.0 0.00 0.00 0.00 67 1016.5
20260906032524 81 132 0.0 0.0 0.00 0.00 0.00 67 1016.3
20260906032018 81 132 0.0 0.0 0.00 0.00 0.00 65 1016.3
20260906031514 82 132 0.0 0.0 0.00 0.00 0.00 65 1016.2
20260906031010 82 132 0.0 0.0 0.00 0.00 0.00 65 1016.3
20260906030509 82 132 0.0 0.0 0.00 0.00 0.00 64 1016.2
20260906030008 82 132 0.0 0.0 0.00 0.00 0.00 63 1016.1
20260906025508 83 132 0.0 0.0 0.00 0.00 0.00 63 1016.2
20260906025006 83 132 0.0 0.0 0.00 0.00 0.00 62 1016.2
20260906024501 83 132 0.0 0.0 0.00 0.00 0.00 61 1016.1
20260906023956 83 132 0.0 0.0 0.00 0.00 0.00 61 1016.0
20260906023452 83 132 0.0 0.0 0.00 0.00 0.00 61 1015.8
20260906022947 84 132 0.0 0.0 0.00 0.00 0.00 60 1015.8
20260906022443 84 132 0.0 0.0 0.00 0.00 0.00 60 1015.9
20260906021937 84 133 0.0 0.0 0.00 0.00 0.00 59 1015.8
20260906021432 85 133 0.0 0.0 0.00 0.00 0.00 58 1015.7
20260906020932 85 132 0.0 0.0 0.00 0.00 0.00 57 1015.8
20260906020427 86 132 0.0 0.0 0.00 0.00 0.00 57 1015.6
20260906015921 86 132 0.0 0.0 0.00 0.00 0.00 55 1015.6
20260906015420 87 132 0.0 0.0 0.00 0.00 0.00 54 1015.5
20260906014915 87 133 0.0 0.0 0.00 0.00 0.00 53 1015.3
20260906014414 88 133 0.0 0.0 0.00 0.00 0.00 52 1015.3
20260906013911 88 132 1.7 1.7 0.00 0.00 0.00 51 1015.4
20260906013406 88 133 0.9 1.7 0.00 0.00 0.00 50 1015.2
20260906012902 88 133 0.0 1.7 0.00 0.00 0.00 50 1015.4
20260906012356 88 133 0.9 0.9 0.00 0.00 0.00 50 1015.2
20260906011856 88 134 0.0 0.0 0.00 0.00 0.00 50 1015.2
20260906011356 88 134 0.0 0.0 0.00 0.00 0.00 50 1015.2
20260906010852 88 136 0.0 0.0 0.00 0.00 0.00 51 1015.2
20260906010348 88 137 0.0 0.0 0.00 0.00 0.00 51 1015.2
20260906005843 89 136 0.0 0.0 0.00 0.00 0.00 51 1014.9
20260906005342 89 136 0.0 0.0 0.00 0.00 0.00 49 1014.6
20260906004841 90 137 0.0 0.0 0.00 0.00 0.00 49 1015.0
20260906004336 90 136 0.0 0.0 0.00 0.00 0.00 49 1014.9
20260906003831 91 137 0.0 0.0 0.00 0.00 0.00 47 1014.8
20260906003327 91 136 0.0 0.0 0.00 0.00 0.00 46 1015.2
20260906002822 91 136 0.0 0.0 0.00 0.00 0.00 47 1015.0
20260906002321 92 136 0.0 0.0 0.00 0.00 0.00 46 1015.0
20260906001818 92 137 0.0 0.0 0.00 0.00 0.00 46 1014.9
20260906001312 93 137 0.0 0.0 0.00 0.00 0.00 45 1014.8
20260906000807 93 135 0.9 0.9 0.00 0.00 0.00 41 1014.8
20260906000303 94 142 0.0 0.0 0.00 0.00 0.00 40 1014.9
20260905235757 94 142 0.0 0.0 0.00 0.00 0.00 40 1015.0
20260905235256 94 142 0.0 0.0 0.00 0.00 0.00 40 1014.9
20260905234752 94 142 0.0 0.0 0.00 0.00 0.00 38 1014.9
20260905234247 95 142 0.0 0.0 0.00 0.00 0.00 38 1014.8
20260905233743 95 142 0.0 0.0 0.00 0.00 0.00 37 1014.9
20260905233241 96 142 0.0 0.0 0.00 0.00 0.00 37 1014.8
20260905232736 96 142 0.0 0.0 0.00 0.00 0.00 35 1014.8
20260905232232 96 142 0.0 0.0 0.00 0.00 0.00 35 1014.8
20260905231728 96 142 0.0 0.0 0.00 0.00 0.00 35 1014.9
20260905231223 96 142 0.0 0.0 0.00 0.00 0.00 35 1014.9
20260905230719 96 142 0.0 0.0 0.00 0.00 0.00 35 1014.8
20260905230216 96 142 0.0 0.0 0.00 0.00 0.00 35 1014.8
20260905225711 97 142 0.0 0.0 0.00 0.00 0.00 33 1014.8
20260905225206 97 142 0.0 0.0 0.00 0.00 0.00 32 1014.7
20260905224705 97 137 0.0 0.0 0.00 0.00 0.00 32 1014.8
20260905224201 97 156 0.9 0.9 0.00 0.00 0.00 32 1014.8
20260905223657 97 155 0.0 0.0 0.00 0.00 0.00 33 1014.6
20260905223153 97 151 0.0 0.0 0.00 0.00 0.00 33 1014.7
20260905222648 97 151 0.0 0.0 0.00 0.00 0.00 33 1014.9
20260905222143 97 152 0.0 0.0 0.00 0.00 0.00 32 1014.7
20260905221638 98 151 0.0 1.7 0.00 0.00 0.00 32 1014.9
20260905221135 98 140 0.0 0.0 0.00 0.00 0.00 31 1014.7
20260905220631 97 171 0.9 1.7 0.00 0.00 0.00 32 1014.8
20260905220127 98 160 0.0 0.0 0.00 0.00 0.00 33 1014.9
20260905215626 98 160 0.0 0.0 0.00 0.00 0.00 31 1014.9
20260905215122 98 160 0.0 0.9 0.00 0.00 0.00 31 1014.8
20260905214618 98 160 0.0 1.7 0.00 0.00 0.00 32 1015.1
20260905214118 98 143 0.9 0.9 0.00 0.00 0.00 33 1015.1
20260905213613 98 134 0.0 0.0 0.00 0.00 0.00 34 1015.0
20260905213108 98 135 0.0 1.7 0.00 0.00 0.00 34 1015.1
20260905212603 98 155 0.0 0.9 0.00 0.00 0.00 35 1014.9
20260905212102 98 177 0.0 0.0 0.00 0.00 0.00 34 1015.3
20260905211558 98 191 0.0 0.9 0.00 0.00 0.00 36 1015.2
20260905211053 97 192 0.9 0.9 0.00 0.00 0.00 36 1015.3
20260905210549 98 170 0.0 0.0 0.00 0.00 0.00 36 1015.4
20260905210043 98 148 0.9 0.9 0.00 0.00 0.00 36 1015.6
20260905205543 98 150 0.0 0.9 0.00 0.00 0.00 36 1015.6
20260905205037 98 149 0.0 0.9 0.00 0.00 0.00 37 1015.5
20260905204532 98 145 0.9 0.9 0.00 0.00 0.00 36 1015.8
20260905204027 98 206 1.7 1.7 0.00 0.00 0.00 35 1015.7
20260905203527 98 210 0.9 1.7 0.00 0.00 0.00 34 1015.9
20260905203022 98 192 0.9 0.9 0.00 0.00 0.00 36 1015.9
20260905202517 98 194 0.9 0.9 0.00 0.00 0.00 35 1015.8
20260905202012 98 141 0.0 0.0 0.00 0.00 0.00 35 1016.1
20260905201508 98 134 1.7 2.6 0.00 0.00 0.00 34 1016.2
20260905201002 98 203 0.9 0.9 0.00 0.00 0.00 35 1016.2
20260905200458 98 147 0.0 0.0 0.00 0.00 0.00 36 1016.3
20260905195956 98 146 0.0 0.9 0.00 0.00 0.00 37 1016.5
20260905195451 98 166 0.0 0.9 0.00 0.00 0.00 38 1016.4
20260905194947 98 197 0.0 1.7 0.00 0.00 0.00 37 1016.4
20260905194446 98 147 0.9 0.9 0.00 0.00 0.00 36 1016.5
20260905193941 98 147 0.0 1.7 0.00 0.00 0.00 36 1016.4
20260905193440 97 208 0.0 0.9 0.00 0.00 0.00 38 1016.6
20260905192936 97 202 0.9 1.7 0.00 0.00 0.00 40 1016.7
20260905192431 97 182 0.0 0.9 0.00 0.00 0.00 38 1016.6
20260905191926 97 148 0.0 0.0 0.00 0.00 0.00 38 1016.7
20260905191426 97 138 0.0 0.9 0.00 0.00 0.00 40 1016.9
20260905190926 97 137 1.7 2.6 0.00 0.00 0.00 38 1017.0
20260905190423 98 192 0.0 1.7 0.00 0.00 0.00 38 1017.2
20260905185922 98 187 0.0 0.9 0.00 0.00 0.00 38 1016.9
20260905185418 97 177 0.0 1.7 0.00 0.00 0.00 39 1017.2
20260905184916 96 142 0.0 0.9 0.00 0.00 0.00 40 1017.4
20260905184411 96 141 0.9 0.9 0.00 0.00 0.00 40 1017.5
20260905183909 97 198 0.0 0.0 0.00 0.00 0.00 40 1017.4
20260905183405 98 199 0.0 0.0 0.00 0.00 0.00 39 1017.3
20260905182859 98 199 0.0 2.6 0.00 0.00 0.00 37 1017.5
20260905182353 98 144 0.9 0.9 0.00 0.00 0.00 38 1017.6
20260905181849 97 206 0.9 2.6 0.00 0.00 0.00 42 1017.6
20260905181348 97 208 0.0 1.7 0.00 0.00 0.00 41 1017.9
20260905180847 98 191 0.0 0.9 0.00 0.00 0.00 39 1017.9
20260905180342 97 142 0.9 2.6 0.00 0.00 0.00 40 1017.9
20260905175837 97 146 0.0 0.9 0.00 0.00 0.00 41 1017.8
20260905175332 96 148 0.0 0.0 0.00 0.00 0.00 42 1018.0
20260905174827 96 191 0.0 0.0 0.00 0.00 0.00 41 1018.0
20260905174323 98 194 1.7 1.7 0.00 0.00 0.00 39 1018.1
20260905173818 98 167 0.9 0.9 0.00 0.00 0.00 40 1018.4
20260905173314 97 194 0.0 0.9 0.00 0.00 0.00 40 1018.2
20260905172808 97 196 1.7 1.7 0.00 0.00 0.00 42 1018.3